sensor_id;sensor_type;location;lat;lon;timestamp;P1;durP1;ratioP1;P2;durP2;ratioP2
6852;SDS011;3465;42.144;24.722;2023-03-14T00:00:02;8.30;;;4.37;;
6852;SDS011;3465;42.144;24.722;2023-03-14T00:02:30;8.90;;;4.20;;
6852;SDS011;3465;42.144;24.722;2023-03-14T00:04:56;9.93;;;4.50;;
6852;SDS011;3465;42.144;24.722;2023-03-14T00:07:22;10.70;;;4.30;;
6852;SDS011;3465;42.144;24.722;2023-03-14T00:09:49;9.10;;;4.20;;
6852;SDS011;3465;42.144;24.722;2023-03-14T00:12:15;9.33;;;4.43;;
6852;SDS011;3465;42.144;24.722;2023-03-14T00:14:41;7.03;;;4.33;;
6852;SDS011;3465;42.144;24.722;2023-03-14T00:17:08;10.53;;;4.17;;
6852;SDS011;3465;42.144;24.722;2023-03-14T00:19:33;9.07;;;4.63;;
6852;SDS011;3465;42.144;24.722;2023-03-14T00:21:58;7.63;;;4.20;;
6852;SDS011;3465;42.144;24.722;2023-03-14T00:24:24;10.60;;;5.07;;
6852;SDS011;3465;42.144;24.722;2023-03-14T00:26:49;15.03;;;5.03;;
6852;SDS011;3465;42.144;24.722;2023-03-14T00:29:14;9.57;;;4.60;;
6852;SDS011;3465;42.144;24.722;2023-03-14T00:31:40;11.93;;;4.83;;
6852;SDS011;3465;42.144;24.722;2023-03-14T00:34:06;66.10;;;10.40;;
6852;SDS011;3465;42.144;24.722;2023-03-14T00:36:31;25.43;;;5.90;;
6852;SDS011;3465;42.144;24.722;2023-03-14T00:38:56;10.83;;;5.00;;
6852;SDS011;3465;42.144;24.722;2023-03-14T00:41:22;12.77;;;4.43;;
6852;SDS011;3465;42.144;24.722;2023-03-14T00:43:49;7.47;;;4.70;;
6852;SDS011;3465;42.144;24.722;2023-03-14T00:46:15;15.00;;;6.57;;
6852;SDS011;3465;42.144;24.722;2023-03-14T00:48:40;15.10;;;6.13;;
6852;SDS011;3465;42.144;24.722;2023-03-14T00:51:07;11.83;;;4.53;;
6852;SDS011;3465;42.144;24.722;2023-03-14T00:53:37;8.37;;;4.80;;
6852;SDS011;3465;42.144;24.722;2023-03-14T00:56:04;14.30;;;6.30;;
6852;SDS011;3465;42.144;24.722;2023-03-14T00:58:31;14.70;;;5.97;;
6852;SDS011;3465;42.144;24.722;2023-03-14T01:00:56;15.00;;;6.57;;
6852;SDS011;3465;42.144;24.722;2023-03-14T01:03:22;16.40;;;7.37;;
6852;SDS011;3465;42.144;24.722;2023-03-14T01:05:50;13.77;;;6.70;;
6852;SDS011;3465;42.144;24.722;2023-03-14T01:08:16;13.47;;;6.90;;
6852;SDS011;3465;42.144;24.722;2023-03-14T01:10:41;15.93;;;7.70;;
6852;SDS011;3465;42.144;24.722;2023-03-14T01:13:07;14.80;;;7.43;;
6852;SDS011;3465;42.144;24.722;2023-03-14T01:15:33;14.90;;;7.40;;
6852;SDS011;3465;42.144;24.722;2023-03-14T01:17:59;18.47;;;7.67;;
6852;SDS011;3465;42.144;24.722;2023-03-14T01:20:25;17.30;;;7.93;;
6852;SDS011;3465;42.144;24.722;2023-03-14T01:22:50;13.90;;;6.70;;
6852;SDS011;3465;42.144;24.722;2023-03-14T01:25:16;14.63;;;7.47;;
6852;SDS011;3465;42.144;24.722;2023-03-14T01:27:42;13.63;;;7.23;;
6852;SDS011;3465;42.144;24.722;2023-03-14T01:30:08;13.67;;;7.03;;
6852;SDS011;3465;42.144;24.722;2023-03-14T01:32:35;16.00;;;7.20;;
6852;SDS011;3465;42.144;24.722;2023-03-14T01:35:01;13.73;;;7.17;;
6852;SDS011;3465;42.144;24.722;2023-03-14T01:37:26;14.13;;;7.57;;
6852;SDS011;3465;42.144;24.722;2023-03-14T01:39:52;11.30;;;6.97;;
6852;SDS011;3465;42.144;24.722;2023-03-14T01:42:17;14.03;;;7.30;;
6852;SDS011;3465;42.144;24.722;2023-03-14T01:47:22;15.07;;;6.87;;
6852;SDS011;3465;42.144;24.722;2023-03-14T01:49:50;13.53;;;6.80;;
6852;SDS011;3465;42.144;24.722;2023-03-14T01:52:18;18.23;;;8.00;;
6852;SDS011;3465;42.144;24.722;2023-03-14T01:54:51;14.57;;;7.70;;
6852;SDS011;3465;42.144;24.722;2023-03-14T01:57:44;16.27;;;8.57;;
6852;SDS011;3465;42.144;24.722;2023-03-14T02:00:14;16.20;;;7.30;;
6852;SDS011;3465;42.144;24.722;2023-03-14T02:02:42;18.07;;;8.20;;
6852;SDS011;3465;42.144;24.722;2023-03-14T02:05:11;17.87;;;8.17;;
6852;SDS011;3465;42.144;24.722;2023-03-14T02:07:46;16.87;;;7.83;;
6852;SDS011;3465;42.144;24.722;2023-03-14T02:10:15;17.97;;;7.73;;
6852;SDS011;3465;42.144;24.722;2023-03-14T02:12:45;14.63;;;6.97;;
6852;SDS011;3465;42.144;24.722;2023-03-14T02:15:11;16.57;;;7.27;;
6852;SDS011;3465;42.144;24.722;2023-03-14T02:17:36;14.23;;;7.27;;
6852;SDS011;3465;42.144;24.722;2023-03-14T02:22:52;13.40;;;7.53;;
6852;SDS011;3465;42.144;24.722;2023-03-14T02:27:50;15.30;;;7.67;;
6852;SDS011;3465;42.144;24.722;2023-03-14T02:30:25;14.27;;;7.23;;
6852;SDS011;3465;42.144;24.722;2023-03-14T02:33:04;19.67;;;7.47;;
6852;SDS011;3465;42.144;24.722;2023-03-14T02:35:32;17.77;;;7.77;;
6852;SDS011;3465;42.144;24.722;2023-03-14T02:40:50;13.97;;;7.60;;
6852;SDS011;3465;42.144;24.722;2023-03-14T02:43:15;17.33;;;7.87;;
6852;SDS011;3465;42.144;24.722;2023-03-14T02:45:42;17.60;;;8.07;;
6852;SDS011;3465;42.144;24.722;2023-03-14T02:48:19;19.73;;;7.80;;
6852;SDS011;3465;42.144;24.722;2023-03-14T02:50:47;12.50;;;7.13;;
6852;SDS011;3465;42.144;24.722;2023-03-14T02:53:16;12.13;;;7.10;;
6852;SDS011;3465;42.144;24.722;2023-03-14T02:55:45;18.50;;;7.57;;
6852;SDS011;3465;42.144;24.722;2023-03-14T02:58:12;14.03;;;7.53;;
6852;SDS011;3465;42.144;24.722;2023-03-14T03:00:37;23.00;;;7.93;;
6852;SDS011;3465;42.144;24.722;2023-03-14T03:03:03;14.50;;;7.40;;
6852;SDS011;3465;42.144;24.722;2023-03-14T03:05:30;18.90;;;8.07;;
6852;SDS011;3465;42.144;24.722;2023-03-14T03:07:56;15.47;;;7.43;;
6852;SDS011;3465;42.144;24.722;2023-03-14T03:10:22;17.33;;;7.60;;
6852;SDS011;3465;42.144;24.722;2023-03-14T03:12:47;14.53;;;7.40;;
6852;SDS011;3465;42.144;24.722;2023-03-14T03:15:13;15.30;;;7.17;;
6852;SDS011;3465;42.144;24.722;2023-03-14T03:17:38;14.43;;;7.03;;
6852;SDS011;3465;42.144;24.722;2023-03-14T03:20:04;13.93;;;7.47;;
6852;SDS011;3465;42.144;24.722;2023-03-14T03:22:30;18.33;;;7.37;;
6852;SDS011;3465;42.144;24.722;2023-03-14T03:24:56;19.30;;;7.90;;
6852;SDS011;3465;42.144;24.722;2023-03-14T03:27:21;16.73;;;7.87;;
6852;SDS011;3465;42.144;24.722;2023-03-14T03:29:46;15.80;;;7.70;;
6852;SDS011;3465;42.144;24.722;2023-03-14T03:32:12;17.13;;;7.80;;
6852;SDS011;3465;42.144;24.722;2023-03-14T03:34:38;13.60;;;7.37;;
6852;SDS011;3465;42.144;24.722;2023-03-14T03:37:03;15.60;;;6.90;;
6852;SDS011;3465;42.144;24.722;2023-03-14T03:39:28;12.67;;;7.17;;
6852;SDS011;3465;42.144;24.722;2023-03-14T03:41:54;20.47;;;7.63;;
6852;SDS011;3465;42.144;24.722;2023-03-14T03:44:19;17.73;;;7.50;;
6852;SDS011;3465;42.144;24.722;2023-03-14T03:46:44;16.67;;;7.27;;
6852;SDS011;3465;42.144;24.722;2023-03-14T03:49:10;20.53;;;7.80;;
6852;SDS011;3465;42.144;24.722;2023-03-14T03:51:35;16.97;;;8.27;;
6852;SDS011;3465;42.144;24.722;2023-03-14T03:54:01;14.70;;;7.60;;
6852;SDS011;3465;42.144;24.722;2023-03-14T03:56:26;18.73;;;9.30;;
6852;SDS011;3465;42.144;24.722;2023-03-14T03:58:51;19.80;;;8.37;;
6852;SDS011;3465;42.144;24.722;2023-03-14T04:01:17;19.03;;;8.27;;
6852;SDS011;3465;42.144;24.722;2023-03-14T04:03:42;16.37;;;8.40;;
6852;SDS011;3465;42.144;24.722;2023-03-14T04:06:09;20.27;;;8.57;;
6852;SDS011;3465;42.144;24.722;2023-03-14T04:08:36;25.47;;;9.27;;
6852;SDS011;3465;42.144;24.722;2023-03-14T04:11:02;23.57;;;9.13;;
6852;SDS011;3465;42.144;24.722;2023-03-14T04:13:28;18.27;;;8.40;;
6852;SDS011;3465;42.144;24.722;2023-03-14T04:15:54;18.57;;;8.37;;
6852;SDS011;3465;42.144;24.722;2023-03-14T04:18:20;21.70;;;7.87;;
6852;SDS011;3465;42.144;24.722;2023-03-14T04:20:53;18.70;;;8.63;;
6852;SDS011;3465;42.144;24.722;2023-03-14T04:23:19;16.30;;;7.93;;
6852;SDS011;3465;42.144;24.722;2023-03-14T04:25:45;18.27;;;8.53;;
6852;SDS011;3465;42.144;24.722;2023-03-14T04:28:11;18.00;;;8.03;;
6852;SDS011;3465;42.144;24.722;2023-03-14T04:30:36;20.97;;;8.57;;
6852;SDS011;3465;42.144;24.722;2023-03-14T04:33:01;20.37;;;9.20;;
6852;SDS011;3465;42.144;24.722;2023-03-14T04:35:27;20.93;;;9.83;;
6852;SDS011;3465;42.144;24.722;2023-03-14T04:37:55;17.43;;;8.53;;
6852;SDS011;3465;42.144;24.722;2023-03-14T04:40:20;22.33;;;9.30;;
6852;SDS011;3465;42.144;24.722;2023-03-14T04:42:45;22.10;;;8.83;;
6852;SDS011;3465;42.144;24.722;2023-03-14T04:45:11;16.93;;;8.53;;
6852;SDS011;3465;42.144;24.722;2023-03-14T04:47:37;25.27;;;8.97;;
6852;SDS011;3465;42.144;24.722;2023-03-14T04:50:02;18.27;;;9.20;;
6852;SDS011;3465;42.144;24.722;2023-03-14T04:52:28;17.67;;;9.03;;
6852;SDS011;3465;42.144;24.722;2023-03-14T04:54:53;18.63;;;9.23;;
6852;SDS011;3465;42.144;24.722;2023-03-14T04:57:18;17.87;;;9.30;;
6852;SDS011;3465;42.144;24.722;2023-03-14T04:59:44;24.20;;;9.70;;
6852;SDS011;3465;42.144;24.722;2023-03-14T05:02:09;24.20;;;10.73;;
6852;SDS011;3465;42.144;24.722;2023-03-14T05:04:34;20.50;;;10.03;;
6852;SDS011;3465;42.144;24.722;2023-03-14T05:07:00;19.00;;;9.10;;
6852;SDS011;3465;42.144;24.722;2023-03-14T05:09:26;20.43;;;9.83;;
6852;SDS011;3465;42.144;24.722;2023-03-14T05:11:51;22.10;;;9.70;;
6852;SDS011;3465;42.144;24.722;2023-03-14T05:14:17;20.67;;;9.67;;
6852;SDS011;3465;42.144;24.722;2023-03-14T05:16:42;24.60;;;9.07;;
6852;SDS011;3465;42.144;24.722;2023-03-14T05:19:08;18.03;;;8.70;;
6852;SDS011;3465;42.144;24.722;2023-03-14T05:21:34;16.37;;;8.83;;
6852;SDS011;3465;42.144;24.722;2023-03-14T05:24:00;18.73;;;9.30;;
6852;SDS011;3465;42.144;24.722;2023-03-14T05:26:25;22.07;;;10.20;;
6852;SDS011;3465;42.144;24.722;2023-03-14T05:28:51;25.03;;;11.47;;
6852;SDS011;3465;42.144;24.722;2023-03-14T05:31:16;25.27;;;12.30;;
6852;SDS011;3465;42.144;24.722;2023-03-14T05:33:41;26.40;;;12.90;;
6852;SDS011;3465;42.144;24.722;2023-03-14T05:36:07;21.57;;;11.77;;
6852;SDS011;3465;42.144;24.722;2023-03-14T05:38:33;20.63;;;11.17;;
6852;SDS011;3465;42.144;24.722;2023-03-14T05:40:58;23.37;;;13.77;;
6852;SDS011;3465;42.144;24.722;2023-03-14T05:43:23;28.13;;;11.67;;
6852;SDS011;3465;42.144;24.722;2023-03-14T05:45:49;32.87;;;14.53;;
6852;SDS011;3465;42.144;24.722;2023-03-14T05:48:14;24.83;;;11.77;;
6852;SDS011;3465;42.144;24.722;2023-03-14T05:50:40;23.50;;;11.33;;
6852;SDS011;3465;42.144;24.722;2023-03-14T05:53:05;20.80;;;10.70;;
6852;SDS011;3465;42.144;24.722;2023-03-14T05:55:31;19.47;;;11.33;;
6852;SDS011;3465;42.144;24.722;2023-03-14T05:57:56;22.13;;;11.03;;
6852;SDS011;3465;42.144;24.722;2023-03-14T06:00:22;16.27;;;9.90;;
6852;SDS011;3465;42.144;24.722;2023-03-14T06:02:47;25.40;;;10.93;;
6852;SDS011;3465;42.144;24.722;2023-03-14T06:05:13;20.43;;;10.47;;
6852;SDS011;3465;42.144;24.722;2023-03-14T06:07:38;18.80;;;10.07;;
6852;SDS011;3465;42.144;24.722;2023-03-14T06:10:04;17.47;;;10.17;;
6852;SDS011;3465;42.144;24.722;2023-03-14T06:12:30;18.83;;;10.67;;
6852;SDS011;3465;42.144;24.722;2023-03-14T06:14:55;19.47;;;10.73;;
6852;SDS011;3465;42.144;24.722;2023-03-14T06:17:21;20.70;;;12.00;;
6852;SDS011;3465;42.144;24.722;2023-03-14T06:19:46;26.63;;;10.80;;
6852;SDS011;3465;42.144;24.722;2023-03-14T06:22:12;19.77;;;10.90;;
6852;SDS011;3465;42.144;24.722;2023-03-14T06:24:37;17.93;;;11.17;;
6852;SDS011;3465;42.144;24.722;2023-03-14T06:27:02;16.30;;;10.73;;
6852;SDS011;3465;42.144;24.722;2023-03-14T06:29:28;18.83;;;11.83;;
6852;SDS011;3465;42.144;24.722;2023-03-14T06:31:54;17.43;;;10.97;;
6852;SDS011;3465;42.144;24.722;2023-03-14T06:34:20;17.73;;;10.73;;
6852;SDS011;3465;42.144;24.722;2023-03-14T06:36:46;19.27;;;10.10;;
6852;SDS011;3465;42.144;24.722;2023-03-14T06:39:12;18.17;;;9.93;;
6852;SDS011;3465;42.144;24.722;2023-03-14T06:41:37;16.20;;;9.87;;
6852;SDS011;3465;42.144;24.722;2023-03-14T06:44:03;17.77;;;10.37;;
6852;SDS011;3465;42.144;24.722;2023-03-14T06:46:29;21.73;;;11.37;;
6852;SDS011;3465;42.144;24.722;2023-03-14T06:48:54;21.93;;;13.67;;
6852;SDS011;3465;42.144;24.722;2023-03-14T06:51:19;25.23;;;11.13;;
6852;SDS011;3465;42.144;24.722;2023-03-14T06:53:45;24.73;;;10.53;;
6852;SDS011;3465;42.144;24.722;2023-03-14T06:56:10;17.73;;;9.83;;
6852;SDS011;3465;42.144;24.722;2023-03-14T06:58:36;20.23;;;10.00;;
6852;SDS011;3465;42.144;24.722;2023-03-14T07:01:01;22.90;;;10.90;;
6852;SDS011;3465;42.144;24.722;2023-03-14T07:03:27;20.42;;;10.13;;
6852;SDS011;3465;42.144;24.722;2023-03-14T07:05:53;27.42;;;12.07;;
6852;SDS011;3465;42.144;24.722;2023-03-14T07:08:18;26.20;;;13.40;;
6852;SDS011;3465;42.144;24.722;2023-03-14T07:10:44;25.00;;;13.43;;
6852;SDS011;3465;42.144;24.722;2023-03-14T07:13:09;33.15;;;13.40;;
6852;SDS011;3465;42.144;24.722;2023-03-14T07:15:35;22.38;;;11.25;;
6852;SDS011;3465;42.144;24.722;2023-03-14T07:18:00;27.60;;;11.80;;
6852;SDS011;3465;42.144;24.722;2023-03-14T07:20:26;21.55;;;11.95;;
6852;SDS011;3465;42.144;24.722;2023-03-14T07:22:51;23.92;;;11.07;;
6852;SDS011;3465;42.144;24.722;2023-03-14T07:25:17;24.27;;;12.50;;
6852;SDS011;3465;42.144;24.722;2023-03-14T07:27:43;19.95;;;10.95;;
6852;SDS011;3465;42.144;24.722;2023-03-14T07:30:10;18.83;;;9.80;;
6852;SDS011;3465;42.144;24.722;2023-03-14T07:32:36;22.63;;;11.15;;
6852;SDS011;3465;42.144;24.722;2023-03-14T07:35:01;26.05;;;9.95;;
6852;SDS011;3465;42.144;24.722;2023-03-14T07:37:27;25.30;;;10.00;;
6852;SDS011;3465;42.144;24.722;2023-03-14T07:39:52;19.80;;;10.18;;
6852;SDS011;3465;42.144;24.722;2023-03-14T07:42:18;21.40;;;10.57;;
6852;SDS011;3465;42.144;24.722;2023-03-14T07:44:43;22.63;;;10.23;;
6852;SDS011;3465;42.144;24.722;2023-03-14T07:47:09;18.95;;;10.05;;
6852;SDS011;3465;42.144;24.722;2023-03-14T07:49:34;25.17;;;10.73;;
6852;SDS011;3465;42.144;24.722;2023-03-14T07:51:59;22.90;;;9.82;;
6852;SDS011;3465;42.144;24.722;2023-03-14T07:54:25;22.85;;;9.75;;
6852;SDS011;3465;42.144;24.722;2023-03-14T07:56:50;18.02;;;9.43;;
6852;SDS011;3465;42.144;24.722;2023-03-14T07:59:17;16.35;;;8.65;;
6852;SDS011;3465;42.144;24.722;2023-03-14T08:01:42;24.13;;;9.50;;
6852;SDS011;3465;42.144;24.722;2023-03-14T08:04:08;19.08;;;8.77;;
6852;SDS011;3465;42.144;24.722;2023-03-14T08:06:34;24.55;;;9.40;;
6852;SDS011;3465;42.144;24.722;2023-03-14T08:09:00;18.70;;;8.55;;
6852;SDS011;3465;42.144;24.722;2023-03-14T08:11:26;17.40;;;8.77;;
6852;SDS011;3465;42.144;24.722;2023-03-14T08:13:51;18.75;;;8.98;;
6852;SDS011;3465;42.144;24.722;2023-03-14T08:16:17;16.15;;;8.45;;
6852;SDS011;3465;42.144;24.722;2023-03-14T08:18:43;15.80;;;9.32;;
6852;SDS011;3465;42.144;24.722;2023-03-14T08:21:09;16.67;;;9.30;;
6852;SDS011;3465;42.144;24.722;2023-03-14T08:23:35;16.90;;;8.88;;
6852;SDS011;3465;42.144;24.722;2023-03-14T08:26:00;16.83;;;8.93;;
6852;SDS011;3465;42.144;24.722;2023-03-14T08:28:26;16.30;;;8.77;;
6852;SDS011;3465;42.144;24.722;2023-03-14T08:30:55;20.50;;;9.38;;
6852;SDS011;3465;42.144;24.722;2023-03-14T08:33:24;18.38;;;9.30;;
6852;SDS011;3465;42.144;24.722;2023-03-14T08:35:52;15.95;;;8.48;;
6852;SDS011;3465;42.144;24.722;2023-03-14T08:38:18;12.70;;;8.77;;
6852;SDS011;3465;42.144;24.722;2023-03-14T08:40:44;17.90;;;8.98;;
6852;SDS011;3465;42.144;24.722;2023-03-14T08:43:09;19.08;;;9.20;;
6852;SDS011;3465;42.144;24.722;2023-03-14T08:45:34;19.45;;;8.77;;
6852;SDS011;3465;42.144;24.722;2023-03-14T08:48:00;24.90;;;9.50;;
6852;SDS011;3465;42.144;24.722;2023-03-14T08:50:25;17.10;;;7.85;;
6852;SDS011;3465;42.144;24.722;2023-03-14T08:52:51;16.98;;;8.05;;
6852;SDS011;3465;42.144;24.722;2023-03-14T08:55:17;16.13;;;8.40;;
6852;SDS011;3465;42.144;24.722;2023-03-14T08:57:42;12.90;;;7.50;;
6852;SDS011;3465;42.144;24.722;2023-03-14T09:00:08;14.00;;;7.88;;
6852;SDS011;3465;42.144;24.722;2023-03-14T09:02:39;12.20;;;7.95;;
6852;SDS011;3465;42.144;24.722;2023-03-14T09:05:05;14.48;;;8.93;;
6852;SDS011;3465;42.144;24.722;2023-03-14T09:07:31;13.05;;;7.85;;
6852;SDS011;3465;42.144;24.722;2023-03-14T09:09:57;17.80;;;8.85;;
6852;SDS011;3465;42.144;24.722;2023-03-14T09:12:22;14.68;;;8.63;;
6852;SDS011;3465;42.144;24.722;2023-03-14T09:14:48;15.95;;;9.30;;
6852;SDS011;3465;42.144;24.722;2023-03-14T09:17:13;14.93;;;7.85;;
6852;SDS011;3465;42.144;24.722;2023-03-14T09:19:38;12.80;;;7.95;;
6852;SDS011;3465;42.144;24.722;2023-03-14T09:22:04;16.38;;;7.43;;
6852;SDS011;3465;42.144;24.722;2023-03-14T09:24:29;14.50;;;7.57;;
6852;SDS011;3465;42.144;24.722;2023-03-14T09:26:55;12.43;;;6.68;;
6852;SDS011;3465;42.144;24.722;2023-03-14T09:29:22;14.60;;;6.55;;
6852;SDS011;3465;42.144;24.722;2023-03-14T09:31:47;10.93;;;6.70;;
6852;SDS011;3465;42.144;24.722;2023-03-14T09:34:12;11.13;;;6.25;;
6852;SDS011;3465;42.144;24.722;2023-03-14T09:36:38;15.07;;;6.50;;
6852;SDS011;3465;42.144;24.722;2023-03-14T09:39:04;12.57;;;5.90;;
6852;SDS011;3465;42.144;24.722;2023-03-14T09:41:33;10.43;;;5.30;;
6852;SDS011;3465;42.144;24.722;2023-03-14T09:44:14;9.85;;;5.65;;
6852;SDS011;3465;42.144;24.722;2023-03-14T09:46:41;10.52;;;5.47;;
6852;SDS011;3465;42.144;24.722;2023-03-14T09:49:10;10.50;;;5.50;;
6852;SDS011;3465;42.144;24.722;2023-03-14T09:51:41;10.63;;;5.10;;
6852;SDS011;3465;42.144;24.722;2023-03-14T09:54:12;9.43;;;4.97;;
6852;SDS011;3465;42.144;24.722;2023-03-14T09:56:49;12.45;;;5.05;;
6852;SDS011;3465;42.144;24.722;2023-03-14T09:59:15;8.27;;;4.82;;
6852;SDS011;3465;42.144;24.722;2023-03-14T10:01:41;13.93;;;4.78;;
6852;SDS011;3465;42.144;24.722;2023-03-14T10:04:07;6.45;;;4.22;;
6852;SDS011;3465;42.144;24.722;2023-03-14T10:06:38;11.80;;;4.43;;
6852;SDS011;3465;42.144;24.722;2023-03-14T10:09:04;8.88;;;4.25;;
6852;SDS011;3465;42.144;24.722;2023-03-14T10:11:30;7.43;;;3.65;;
6852;SDS011;3465;42.144;24.722;2023-03-14T10:16:29;5.88;;;3.88;;
6852;SDS011;3465;42.144;24.722;2023-03-14T10:19:07;7.40;;;4.43;;
6852;SDS011;3465;42.144;24.722;2023-03-14T10:21:39;11.05;;;4.20;;
6852;SDS011;3465;42.144;24.722;2023-03-14T10:24:10;9.80;;;4.05;;
6852;SDS011;3465;42.144;24.722;2023-03-14T10:26:53;12.55;;;4.60;;
6852;SDS011;3465;42.144;24.722;2023-03-14T10:29:20;8.23;;;4.22;;
6852;SDS011;3465;42.144;24.722;2023-03-14T10:32:10;9.35;;;4.10;;
6852;SDS011;3465;42.144;24.722;2023-03-14T10:34:43;7.88;;;4.07;;
6852;SDS011;3465;42.144;24.722;2023-03-14T10:37:18;7.78;;;4.32;;
6852;SDS011;3465;42.144;24.722;2023-03-14T10:39:47;6.55;;;3.80;;
6852;SDS011;3465;42.144;24.722;2023-03-14T10:42:22;5.78;;;3.50;;
6852;SDS011;3465;42.144;24.722;2023-03-14T10:44:55;8.45;;;3.08;;
6852;SDS011;3465;42.144;24.722;2023-03-14T10:47:24;7.13;;;3.60;;
6852;SDS011;3465;42.144;24.722;2023-03-14T10:49:53;5.85;;;3.90;;
6852;SDS011;3465;42.144;24.722;2023-03-14T10:52:26;7.80;;;3.35;;
6852;SDS011;3465;42.144;24.722;2023-03-14T10:57:26;9.00;;;3.85;;
6852;SDS011;3465;42.144;24.722;2023-03-14T10:59:53;4.43;;;3.42;;
6852;SDS011;3465;42.144;24.722;2023-03-14T11:08:11;3.90;;;3.50;;
6852;SDS011;3465;42.144;24.722;2023-03-14T11:10:46;7.22;;;4.20;;
6852;SDS011;3465;42.144;24.722;2023-03-14T11:13:32;7.10;;;4.22;;
6852;SDS011;3465;42.144;24.722;2023-03-14T11:22:30;5.28;;;3.80;;
6852;SDS011;3465;42.144;24.722;2023-03-14T11:25:16;12.98;;;4.30;;
6852;SDS011;3465;42.144;24.722;2023-03-14T11:33:18;12.57;;;4.60;;
6852;SDS011;3465;42.144;24.722;2023-03-14T11:35:55;7.43;;;4.60;;
6852;SDS011;3465;42.144;24.722;2023-03-14T11:38:28;10.85;;;4.63;;
6852;SDS011;3465;42.144;24.722;2023-03-14T11:40:58;6.18;;;3.80;;
6852;SDS011;3465;42.144;24.722;2023-03-14T11:43:30;8.07;;;4.13;;
6852;SDS011;3465;42.144;24.722;2023-03-14T11:46:08;7.38;;;4.05;;
6852;SDS011;3465;42.144;24.722;2023-03-14T11:48:53;5.68;;;3.50;;
6852;SDS011;3465;42.144;24.722;2023-03-14T11:51:27;7.78;;;3.85;;
6852;SDS011;3465;42.144;24.722;2023-03-14T11:56:53;4.32;;;2.97;;
6852;SDS011;3465;42.144;24.722;2023-03-14T11:59:24;6.78;;;3.17;;
6852;SDS011;3465;42.144;24.722;2023-03-14T12:01:59;5.18;;;3.20;;
6852;SDS011;3465;42.144;24.722;2023-03-14T12:04:31;7.28;;;3.67;;
6852;SDS011;3465;42.144;24.722;2023-03-14T12:07:07;5.22;;;3.55;;
6852;SDS011;3465;42.144;24.722;2023-03-14T12:09:41;5.88;;;3.30;;
6852;SDS011;3465;42.144;24.722;2023-03-14T12:12:06;4.45;;;3.35;;
6852;SDS011;3465;42.144;24.722;2023-03-14T12:14:43;5.85;;;3.47;;
6852;SDS011;3465;42.144;24.722;2023-03-14T12:17:21;5.38;;;3.40;;
6852;SDS011;3465;42.144;24.722;2023-03-14T12:22:50;8.98;;;3.65;;
6852;SDS011;3465;42.144;24.722;2023-03-14T12:25:22;8.35;;;3.60;;
6852;SDS011;3465;42.144;24.722;2023-03-14T12:30:29;8.13;;;3.88;;
6852;SDS011;3465;42.144;24.722;2023-03-14T12:35:44;6.88;;;4.10;;
6852;SDS011;3465;42.144;24.722;2023-03-14T12:40:59;11.00;;;4.20;;
6852;SDS011;3465;42.144;24.722;2023-03-14T12:43:28;5.20;;;3.55;;
6852;SDS011;3465;42.144;24.722;2023-03-14T12:48:42;5.55;;;4.05;;
6852;SDS011;3465;42.144;24.722;2023-03-14T12:51:14;5.55;;;3.65;;
6852;SDS011;3465;42.144;24.722;2023-03-14T12:53:57;7.05;;;4.10;;
6852;SDS011;3465;42.144;24.722;2023-03-14T13:01:37;6.63;;;3.65;;
6852;SDS011;3465;42.144;24.722;2023-03-14T13:04:12;6.88;;;3.45;;
6852;SDS011;3465;42.144;24.722;2023-03-14T13:11:53;6.63;;;3.40;;
6852;SDS011;3465;42.144;24.722;2023-03-14T13:14:19;4.93;;;3.35;;
6852;SDS011;3465;42.144;24.722;2023-03-14T13:16:46;7.38;;;3.58;;
6852;SDS011;3465;42.144;24.722;2023-03-14T13:19:25;7.47;;;4.18;;
6852;SDS011;3465;42.144;24.722;2023-03-14T13:21:56;8.57;;;3.70;;
6852;SDS011;3465;42.144;24.722;2023-03-14T13:24:27;8.63;;;3.80;;
6852;SDS011;3465;42.144;24.722;2023-03-14T13:26:54;8.52;;;4.38;;
6852;SDS011;3465;42.144;24.722;2023-03-14T13:29:21;11.63;;;3.93;;
6852;SDS011;3465;42.144;24.722;2023-03-14T13:31:49;8.40;;;3.50;;
6852;SDS011;3465;42.144;24.722;2023-03-14T13:34:17;6.70;;;3.97;;
6852;SDS011;3465;42.144;24.722;2023-03-14T13:36:43;5.73;;;3.73;;
6852;SDS011;3465;42.144;24.722;2023-03-14T13:39:18;7.53;;;3.97;;
6852;SDS011;3465;42.144;24.722;2023-03-14T13:41:49;5.53;;;3.53;;
6852;SDS011;3465;42.144;24.722;2023-03-14T13:44:16;7.32;;;4.05;;
6852;SDS011;3465;42.144;24.722;2023-03-14T13:46:46;9.98;;;4.07;;
6852;SDS011;3465;42.144;24.722;2023-03-14T13:49:22;9.20;;;3.83;;
6852;SDS011;3465;42.144;24.722;2023-03-14T13:51:48;8.07;;;4.30;;
6852;SDS011;3465;42.144;24.722;2023-03-14T13:54:18;6.20;;;4.10;;
6852;SDS011;3465;42.144;24.722;2023-03-14T13:56:44;8.57;;;4.27;;
6852;SDS011;3465;42.144;24.722;2023-03-14T14:01:56;5.67;;;3.73;;
6852;SDS011;3465;42.144;24.722;2023-03-14T14:04:24;5.93;;;4.07;;
6852;SDS011;3465;42.144;24.722;2023-03-14T14:06:58;8.80;;;4.17;;
6852;SDS011;3465;42.144;24.722;2023-03-14T14:09:29;11.20;;;4.00;;
6852;SDS011;3465;42.144;24.722;2023-03-14T14:12:05;6.07;;;4.10;;
6852;SDS011;3465;42.144;24.722;2023-03-14T14:17:20;5.27;;;3.40;;
6852;SDS011;3465;42.144;24.722;2023-03-14T14:19:49;7.00;;;3.67;;
6852;SDS011;3465;42.144;24.722;2023-03-14T14:22:16;6.60;;;3.07;;
6852;SDS011;3465;42.144;24.722;2023-03-14T14:24:42;4.63;;;3.70;;
6852;SDS011;3465;42.144;24.722;2023-03-14T14:30:04;9.90;;;3.40;;
6852;SDS011;3465;42.144;24.722;2023-03-14T14:32:41;7.70;;;3.50;;
6852;SDS011;3465;42.144;24.722;2023-03-14T14:35:07;5.70;;;3.47;;
6852;SDS011;3465;42.144;24.722;2023-03-14T14:37:42;7.67;;;3.90;;
6852;SDS011;3465;42.144;24.722;2023-03-14T14:40:25;10.33;;;3.97;;
6852;SDS011;3465;42.144;24.722;2023-03-14T14:42:55;5.77;;;3.40;;
6852;SDS011;3465;42.144;24.722;2023-03-14T14:45:28;5.60;;;3.40;;
6852;SDS011;3465;42.144;24.722;2023-03-14T14:53:02;7.13;;;3.77;;
6852;SDS011;3465;42.144;24.722;2023-03-14T14:55:52;8.63;;;3.30;;
6852;SDS011;3465;42.144;24.722;2023-03-14T14:58:43;7.40;;;3.87;;
6852;SDS011;3465;42.144;24.722;2023-03-14T15:03:48;7.37;;;4.00;;
6852;SDS011;3465;42.144;24.722;2023-03-14T15:06:17;7.27;;;3.60;;
6852;SDS011;3465;42.144;24.722;2023-03-14T15:08:44;14.07;;;4.20;;
6852;SDS011;3465;42.144;24.722;2023-03-14T15:11:18;5.97;;;3.97;;
6852;SDS011;3465;42.144;24.722;2023-03-14T15:13:47;8.63;;;4.13;;
6852;SDS011;3465;42.144;24.722;2023-03-14T15:16:14;7.30;;;4.10;;
6852;SDS011;3465;42.144;24.722;2023-03-14T15:18:41;8.77;;;4.20;;
6852;SDS011;3465;42.144;24.722;2023-03-14T15:21:09;6.50;;;4.20;;
6852;SDS011;3465;42.144;24.722;2023-03-14T15:23:35;6.97;;;4.00;;
6852;SDS011;3465;42.144;24.722;2023-03-14T15:26:00;7.30;;;4.27;;
6852;SDS011;3465;42.144;24.722;2023-03-14T15:28:27;9.93;;;4.20;;
6852;SDS011;3465;42.144;24.722;2023-03-14T15:30:54;8.50;;;4.30;;
6852;SDS011;3465;42.144;24.722;2023-03-14T15:33:24;7.77;;;4.00;;
6852;SDS011;3465;42.144;24.722;2023-03-14T15:35:51;12.57;;;4.67;;
6852;SDS011;3465;42.144;24.722;2023-03-14T15:38:17;7.90;;;4.10;;
6852;SDS011;3465;42.144;24.722;2023-03-14T15:40:50;5.70;;;3.43;;
6852;SDS011;3465;42.144;24.722;2023-03-14T15:43:17;7.07;;;4.30;;
6852;SDS011;3465;42.144;24.722;2023-03-14T15:45:43;6.83;;;4.60;;
6852;SDS011;3465;42.144;24.722;2023-03-14T15:48:12;8.33;;;4.17;;
6852;SDS011;3465;42.144;24.722;2023-03-14T15:50:41;8.13;;;4.17;;
6852;SDS011;3465;42.144;24.722;2023-03-14T15:53:06;7.13;;;4.70;;
6852;SDS011;3465;42.144;24.722;2023-03-14T15:55:32;9.40;;;4.67;;
6852;SDS011;3465;42.144;24.722;2023-03-14T15:57:57;8.90;;;4.90;;
6852;SDS011;3465;42.144;24.722;2023-03-14T16:00:24;7.87;;;4.70;;
6852;SDS011;3465;42.144;24.722;2023-03-14T16:02:49;12.40;;;4.30;;
6852;SDS011;3465;42.144;24.722;2023-03-14T16:05:15;9.17;;;4.30;;
6852;SDS011;3465;42.144;24.722;2023-03-14T16:07:43;9.57;;;3.73;;
6852;SDS011;3465;42.144;24.722;2023-03-14T16:10:10;13.23;;;4.30;;